Time;durP1;ratioP1;P1;durP2;ratioP2;P2;SDS_P1;SDS_P2;PMS_P1;PMS_P2;Temp;Humidity;BMP_temperature;BMP_pressure;BME280_temperature;BME280_humidity;BME280_pressure;Samples;Min_cycle;Max_cycle;Signal;HPM_P1;HPM_P2
2022/04/30 00:00:47;;;;;;;8.38;5.40;;;8.40;99.90;;;;;;5091648;28;20200;-80
2022/04/30 00:03:15;;;;;;;9.68;4.57;;;8.40;99.90;;;;;;5083191;28;20233;-80
2022/04/30 00:05:42;;;;;;;8.13;5.65;;;8.40;99.90;;;;;;5067762;28;20240;-80
2022/04/30 00:08:11;;;;;;;10.48;5.32;;;8.40;99.90;;;;;;5080902;28;20213;-82
2022/04/30 00:10:38;;;;;;;9.07;5.15;;;8.40;99.90;;;;;;5081439;28;20236;-80
2022/04/30 00:13:07;;;;;;;8.80;5.25;;;8.40;99.90;;;;;;5083975;28;20760;-82
2022/04/30 00:15:34;;;;;;;7.50;4.70;;;8.40;99.90;;;;;;5084093;28;20273;-81
2022/04/30 00:18:02;;;;;;;6.25;4.50;;;8.40;99.90;;;;;;5083227;28;20215;-82
2022/04/30 00:20:29;;;;;;;10.88;6.22;;;8.30;99.90;;;;;;5083351;28;20224;-82
2022/04/30 00:22:57;;;;;;;10.75;5.82;;;8.30;99.90;;;;;;5081862;28;20678;-81
2022/04/30 00:25:25;;;;;;;11.35;5.22;;;8.30;99.90;;;;;;5087425;28;20226;-81
2022/04/30 00:27:52;;;;;;;7.00;4.65;;;8.30;99.90;;;;;;5083453;28;20250;-81
2022/04/30 00:30:19;;;;;;;11.85;5.50;;;8.30;99.90;;;;;;5084023;28;20218;-80
2022/04/30 00:32:46;;;;;;;8.98;6.65;;;8.20;99.90;;;;;;5082550;28;20213;-82
2022/04/30 00:35:14;;;;;;;9.80;7.20;;;8.20;99.90;;;;;;5076047;28;20253;-82
2022/04/30 00:37:41;;;;;;;8.90;6.70;;;8.10;99.90;;;;;;5079222;28;20208;-81
2022/04/30 00:40:11;;;;;;;9.27;6.15;;;8.30;99.90;;;;;;5079147;28;20229;-80
2022/04/30 00:42:40;;;;;;;11.38;6.35;;;8.20;99.90;;;;;;5069828;28;20218;-82
2022/04/30 00:45:08;;;;;;;9.75;7.05;;;8.10;99.90;;;;;;5081840;28;20278;-80
2022/04/30 00:47:35;;;;;;;10.80;5.93;;;8.20;99.90;;;;;;5084626;28;20216;-82
2022/04/30 00:50:02;;;;;;;11.90;6.45;;;8.20;99.90;;;;;;5090979;28;20236;-84
2022/04/30 00:52:30;;;;;;;6.88;6.18;;;8.20;99.90;;;;;;5092042;28;20190;-84
2022/04/30 00:55:02;;;;;;;9.80;7.47;;;8.10;99.90;;;;;;5082686;28;20210;-83
2022/04/30 00:57:32;;;;;;;13.40;7.90;;;8.10;99.90;;;;;;5091052;28;20213;-82
2022/04/30 01:00:03;;;;;;;11.32;7.60;;;8.10;99.90;;;;;;5094864;28;20204;-82
2022/04/30 01:02:31;;;;;;;12.82;9.18;;;8.00;99.90;;;;;;5086045;28;20652;-82
2022/04/30 01:04:58;;;;;;;18.00;9.55;;;8.00;99.90;;;;;;5081001;28;20648;-81
2022/04/30 01:07:26;;;;;;;12.25;8.10;;;7.90;99.90;;;;;;5079916;28;20196;-81
2022/04/30 01:09:54;;;;;;;10.02;8.55;;;7.80;99.90;;;;;;5079474;28;20194;-83
2022/04/30 01:12:22;;;;;;;11.93;8.30;;;7.70;99.90;;;;;;5082771;28;20205;-81
2022/04/30 01:14:52;;;;;;;10.45;7.93;;;7.60;99.90;;;;;;5071650;28;20228;-83
2022/04/30 01:17:21;;;;;;;12.93;9.00;;;7.60;99.90;;;;;;5086757;28;20258;-79
2022/04/30 01:19:49;;;;;;;11.30;8.70;;;7.60;99.90;;;;;;5085675;28;20275;-82
2022/04/30 01:22:22;;;;;;;14.40;8.90;;;7.50;99.90;;;;;;5093358;28;20228;-81
2022/04/30 01:24:56;;;;;;;18.63;11.30;;;7.50;99.90;;;;;;5095755;28;20338;-81
2022/04/30 01:27:25;;;;;;;11.30;9.02;;;7.40;99.90;;;;;;5093853;28;20214;-82
2022/04/30 01:29:53;;;;;;;13.18;9.40;;;7.40;99.90;;;;;;5086169;28;20249;-81
2022/04/30 01:37:54;;;;;;;11.25;9.20;;;7.40;99.90;;;;;;5025020;28;20245;-83
2022/04/30 01:40:22;;;;;;;13.20;9.25;;;7.40;99.90;;;;;;5069919;28;20231;-79
2022/04/30 01:42:49;;;;;;;12.77;8.52;;;7.40;99.90;;;;;;5075816;28;20204;-83
2022/04/30 01:45:18;;;;;;;15.40;9.68;;;7.30;99.90;;;;;;5082845;28;20250;-80
2022/04/30 01:47:46;;;;;;;15.93;8.93;;;7.30;99.90;;;;;;5070243;28;20242;-80
2022/04/30 01:50:14;;;;;;;15.13;8.90;;;7.30;99.90;;;;;;5080666;28;20268;-82
2022/04/30 01:52:41;;;;;;;11.18;9.10;;;7.30;99.90;;;;;;5073923;28;20199;-80
2022/04/30 01:55:08;;;;;;;15.45;9.70;;;7.20;99.90;;;;;;5080442;28;20224;-81
2022/04/30 01:57:39;;;;;;;13.13;9.35;;;7.20;99.90;;;;;;5077013;28;20279;-81
2022/04/30 02:00:08;;;;;;;13.10;8.30;;;7.20;99.90;;;;;;5082586;28;20215;-80
2022/04/30 02:02:36;;;;;;;13.77;9.45;;;7.20;99.90;;;;;;5076385;28;20233;-82
2022/04/30 02:05:07;;;;;;;12.50;8.30;;;7.20;99.90;;;;;;5076491;28;20285;-79
2022/04/30 02:07:39;;;;;;;14.13;9.18;;;7.30;99.90;;;;;;5076098;28;20203;-80
2022/04/30 02:10:07;;;;;;;15.35;8.32;;;7.30;99.90;;;;;;5078065;28;20204;-79
2022/04/30 02:12:35;;;;;;;12.85;9.20;;;7.40;99.90;;;;;;5078111;28;20206;-81
2022/04/30 02:15:05;;;;;;;10.15;8.43;;;7.50;99.90;;;;;;5081643;28;20302;-81
2022/04/30 02:17:36;;;;;;;17.33;9.07;;;7.40;99.90;;;;;;5071696;28;20228;-81
2022/04/30 02:20:26;;;;;;;14.77;9.45;;;7.40;99.90;;;;;;5076218;28;20209;-79
2022/04/30 02:22:55;;;;;;;16.38;8.52;;;7.40;99.90;;;;;;5081950;28;20202;-80
2022/04/30 02:25:23;;;;;;;15.13;9.02;;;7.40;99.90;;;;;;5076702;28;20215;-82
2022/04/30 02:27:51;;;;;;;14.35;11.38;;;7.40;99.90;;;;;;5083522;28;20228;-81
2022/04/30 02:30:22;;;;;;;16.70;10.35;;;7.30;99.90;;;;;;5075877;28;20313;-81
2022/04/30 02:32:51;;;;;;;13.85;9.50;;;7.30;99.90;;;;;;5081906;28;20303;-82
2022/04/30 02:35:19;;;;;;;12.73;8.68;;;7.30;99.90;;;;;;5074669;28;20241;-81
2022/04/30 02:37:48;;;;;;;18.58;10.85;;;7.20;99.90;;;;;;5078140;28;20216;-81
2022/04/30 02:40:15;;;;;;;14.35;10.50;;;7.10;99.90;;;;;;5079923;28;20247;-80
2022/04/30 02:42:44;;;;;;;13.80;10.30;;;7.20;99.90;;;;;;5075573;28;20207;-81
2022/04/30 02:45:12;;;;;;;14.50;10.43;;;7.10;99.90;;;;;;5076389;28;20262;-80
2022/04/30 02:47:41;;;;;;;15.75;9.90;;;6.90;99.90;;;;;;5078908;28;20231;-80
2022/04/30 02:50:10;;;;;;;16.20;10.52;;;7.10;99.90;;;;;;5080780;28;20293;-81
2022/04/30 02:52:37;;;;;;;15.77;10.52;;;7.10;99.90;;;;;;5070809;28;20291;-80
2022/04/30 02:55:06;;;;;;;12.57;9.73;;;7.10;99.90;;;;;;5063840;28;20266;-80
2022/04/30 02:59:53;;;;;;;12.73;10.23;;;7.10;99.90;;;;;;5071841;28;20223;-80
2022/04/30 03:00:27;;;;;;;15.32;9.15;;;7.10;99.90;;;;;;5073787;28;20734;-80
2022/04/30 03:02:55;;;;;;;16.52;10.75;;;7.20;99.90;;;;;;5080727;28;20200;-80
2022/04/30 03:05:22;;;;;;;13.70;9.68;;;7.10;99.90;;;;;;5064259;28;20220;-79
2022/04/30 03:07:49;;;;;;;15.45;9.38;;;7.10;99.90;;;;;;5070642;28;20291;-80
2022/04/30 03:10:16;;;;;;;16.33;9.43;;;7.10;99.90;;;;;;5071995;28;20212;-82
2022/04/30 03:12:43;;;;;;;17.85;9.43;;;7.10;99.90;;;;;;5083289;28;20643;-80
2022/04/30 03:15:11;;;;;;;15.20;9.68;;;7.10;99.90;;;;;;5078974;28;20826;-81
2022/04/30 03:23:11;;;;;;;16.38;10.77;;;7.20;99.90;;;;;;5071189;28;20215;-81
2022/04/30 03:25:37;;;;;;;20.45;9.77;;;7.20;99.90;;;;;;5078778;28;20247;-81
2022/04/30 03:28:05;;;;;;;14.82;9.35;;;7.20;99.90;;;;;;5089544;28;20252;-81
2022/04/30 03:30:32;;;;;;;22.38;11.35;;;7.20;99.90;;;;;;5083522;28;20221;-80
2022/04/30 03:32:58;;;;;;;18.80;13.25;;;7.30;99.90;;;;;;5087204;28;20292;-81
2022/04/30 03:35:27;;;;;;;16.90;8.88;;;7.30;99.90;;;;;;5079190;28;20240;-80
2022/04/30 03:37:54;;;;;;;18.35;9.50;;;7.30;99.90;;;;;;5090063;28;20246;-81
2022/04/30 03:40:22;;;;;;;11.70;10.00;;;7.40;99.90;;;;;;5083441;28;20263;-79
2022/04/30 03:42:49;;;;;;;16.75;10.75;;;7.40;99.90;;;;;;5073617;28;20236;-80
2022/04/30 03:45:16;;;;;;;20.45;11.15;;;7.40;99.90;;;;;;5068093;28;20243;-79
2022/04/30 03:47:43;;;;;;;16.95;9.23;;;7.40;99.90;;;;;;5070405;28;20240;-79
2022/04/30 03:50:10;;;;;;;16.83;9.85;;;7.40;99.90;;;;;;5084630;28;20688;-81
2022/04/30 03:52:39;;;;;;;21.60;10.70;;;7.30;99.90;;;;;;5074433;28;20279;-80
2022/04/30 03:55:07;;;;;;;17.63;9.18;;;7.30;99.90;;;;;;5075275;28;20307;-80
2022/04/30 03:57:34;;;;;;;12.07;9.75;;;7.20;99.90;;;;;;5069907;28;20221;-79
2022/04/30 04:00:01;;;;;;;16.73;10.48;;;7.20;99.90;;;;;;5062750;28;20247;-80
2022/04/30 04:02:29;;;;;;;27.30;13.70;;;7.10;99.90;;;;;;5076073;28;20225;-79
2022/04/30 04:04:56;;;;;;;14.93;12.02;;;7.10;99.90;;;;;;5072800;28;20227;-81
2022/04/30 04:07:23;;;;;;;19.80;11.32;;;7.10;99.90;;;;;;5088363;28;20212;-82
2022/04/30 04:09:51;;;;;;;28.67;11.25;;;7.10;99.90;;;;;;5086674;28;20296;-80
2022/04/30 04:12:18;;;;;;;16.77;9.60;;;7.20;99.90;;;;;;5076104;28;20223;-80
2022/04/30 04:17:38;;;;;;;13.38;8.70;;;7.20;99.90;;;;;;5077748;28;20223;-81
2022/04/30 04:20:06;;;;;;;15.52;10.80;;;7.30;99.90;;;;;;5083092;28;20277;-81
2022/04/30 04:22:33;;;;;;;13.68;9.13;;;7.30;99.90;;;;;;5081632;28;20307;-81
2022/04/30 04:27:46;;;;;;;15.73;8.88;;;7.40;99.90;;;;;;5084470;28;20279;-80
2022/04/30 04:30:13;;;;;;;16.92;10.75;;;7.40;99.90;;;;;;5085257;28;20276;-81
2022/04/30 04:32:40;;;;;;;14.98;10.70;;;7.40;99.90;;;;;;5083694;28;20215;-81
2022/04/30 04:35:07;;;;;;;14.55;9.60;;;7.40;99.90;;;;;;5084156;28;20280;-83
2022/04/30 04:37:34;;;;;;;20.27;11.55;;;7.40;99.90;;;;;;5078186;28;20307;-81
2022/04/30 04:40:03;;;;;;;16.77;11.15;;;7.40;99.90;;;;;;5074626;28;20749;-83
2022/04/30 04:42:29;;;;;;;15.45;10.73;;;7.50;99.90;;;;;;5095653;28;20175;-81
2022/04/30 04:44:56;;;;;;;16.52;9.63;;;7.60;99.90;;;;;;5077647;28;20210;-79
2022/04/30 04:47:23;;;;;;;20.45;11.57;;;7.70;99.90;;;;;;5091771;28;20196;-82
2022/04/30 04:49:50;;;;;;;19.15;10.73;;;7.70;99.90;;;;;;5102195;28;20241;-79
2022/04/30 04:52:17;;;;;;;26.00;11.63;;;7.80;99.90;;;;;;5102167;28;20177;-83
2022/04/30 04:54:44;;;;;;;19.55;11.45;;;7.90;99.90;;;;;;5102146;28;20219;-82
2022/04/30 04:57:12;;;;;;;18.08;11.25;;;8.00;99.90;;;;;;5099484;28;20224;-82
2022/04/30 04:59:39;;;;;;;15.73;11.15;;;8.00;99.90;;;;;;5081940;28;20199;-82
2022/04/30 05:02:06;;;;;;;27.45;11.50;;;8.10;99.90;;;;;;5100286;28;20186;-82
2022/04/30 05:04:33;;;;;;;11.98;8.93;;;8.20;99.90;;;;;;5101864;28;20209;-84
2022/04/30 05:07:01;;;;;;;19.77;11.45;;;8.60;99.90;;;;;;5101845;28;20186;-81
2022/04/30 05:09:28;;;;;;;13.27;8.70;;;9.00;99.90;;;;;;5087146;28;20227;-85
2022/04/30 05:11:55;;;;;;;11.48;8.90;;;9.50;99.90;;;;;;5080259;28;20218;-83
2022/04/30 05:17:49;;;;;;;18.58;9.27;;;10.80;99.90;;;;;;5078374;28;20598;-79
2022/04/30 05:20:16;;;;;;;17.10;8.27;;;11.70;99.90;;;;;;5066887;28;20192;-81
2022/04/30 05:22:43;;;;;;;11.13;7.25;;;12.40;99.90;;;;;;5076013;28;20301;-82
2022/04/30 05:25:13;;;;;;;12.73;8.50;;;13.20;99.90;;;;;;5078362;28;20678;-82
2022/04/30 05:27:40;;;;;;;9.77;7.93;;;13.80;99.90;;;;;;5067559;28;20216;-82
2022/04/30 05:30:08;;;;;;;10.63;8.25;;;14.20;99.90;;;;;;5075295;28;20270;-81
2022/04/30 05:32:35;;;;;;;31.23;9.35;;;15.00;99.90;;;;;;5069534;28;20210;-83
2022/04/30 05:35:04;;;;;;;9.20;7.90;;;15.10;99.90;;;;;;5083475;28;20215;-82
2022/04/30 05:37:31;;;;;;;12.77;9.35;;;14.60;99.90;;;;;;5083150;28;20754;-82
2022/04/30 05:39:58;;;;;;;14.45;9.05;;;14.30;99.90;;;;;;5082506;28;20282;-83
2022/04/30 05:42:25;;;;;;;9.68;7.38;;;14.40;99.90;;;;;;5087457;28;20241;-80
2022/04/30 05:44:52;;;;;;;10.20;8.25;;;14.80;99.90;;;;;;5085727;28;20228;-82
2022/04/30 05:47:19;;;;;;;10.38;7.28;;;15.60;99.90;;;;;;5077037;28;20233;-84
2022/04/30 05:49:46;;;;;;;10.82;7.90;;;16.00;98.70;;;;;;5080252;28;20237;-83
2022/04/30 05:52:14;;;;;;;13.33;8.00;;;16.40;97.70;;;;;;5080329;28;20295;-83
2022/04/30 05:54:41;;;;;;;12.68;8.90;;;16.80;95.80;;;;;;5073900;28;20451;-81
2022/04/30 05:57:08;;;;;;;12.70;7.38;;;16.60;95.00;;;;;;5072095;28;20260;-83
2022/04/30 05:59:35;;;;;;;13.10;7.65;;;16.30;95.60;;;;;;5073817;28;20295;-81
2022/04/30 06:02:02;;;;;;;11.55;8.52;;;16.20;96.30;;;;;;5085965;28;20211;-79
2022/04/30 06:04:29;;;;;;;10.18;7.25;;;16.10;96.70;;;;;;5072768;28;20201;-83
2022/04/30 06:06:56;;;;;;;8.77;6.93;;;16.70;96.00;;;;;;5080727;28;20209;-81
2022/04/30 06:09:24;;;;;;;12.63;8.33;;;17.20;94.40;;;;;;5082125;28;20228;-81
2022/04/30 06:11:51;;;;;;;10.83;7.57;;;17.40;93.80;;;;;;5082828;28;20471;-83
2022/04/30 06:14:18;;;;;;;7.80;6.63;;;17.40;93.40;;;;;;5079281;28;20474;-84
2022/04/30 06:16:45;;;;;;;9.57;6.57;;;17.30;93.70;;;;;;5081534;28;20472;-83
2022/04/30 06:19:12;;;;;;;10.27;6.57;;;17.60;93.50;;;;;;5088187;28;21010;-81
2022/04/30 06:21:39;;;;;;;11.03;7.30;;;17.80;92.80;;;;;;5086138;28;20483;-80
2022/04/30 06:24:06;;;;;;;9.43;7.57;;;17.80;92.00;;;;;;5074811;28;20479;-82
2022/04/30 06:26:35;;;;;;;14.90;7.67;;;17.20;92.90;;;;;;5079481;28;20835;-84
2022/04/30 06:29:03;;;;;;;10.73;7.27;;;17.40;93.30;;;;;;5087784;28;20451;-80
2022/04/30 06:31:29;;;;;;;9.53;6.70;;;17.60;92.90;;;;;;5072746;28;20456;-83
2022/04/30 06:33:56;;;;;;;9.70;6.97;;;18.00;92.20;;;;;;5087228;28;20457;-81
2022/04/30 06:36:23;;;;;;;8.50;6.60;;;18.50;91.50;;;;;;5075176;28;20465;-82
2022/04/30 06:38:50;;;;;;;11.37;7.07;;;18.80;90.60;;;;;;5080738;28;20485;-81
2022/04/30 06:41:19;;;;;;;9.83;6.47;;;19.10;89.80;;;;;;5086347;28;20437;-81
2022/04/30 06:43:48;;;;;;;10.57;5.40;;;19.20;88.90;;;;;;5082523;28;20794;-81
2022/04/30 06:46:15;;;;;;;9.10;6.97;;;19.10;88.80;;;;;;5096324;28;20453;-83
2022/04/30 06:48:44;;;;;;;9.17;5.30;;;19.30;89.20;;;;;;5098957;28;20462;-83
2022/04/30 06:51:11;;;;;;;10.23;6.73;;;19.90;86.90;;;;;;5080196;28;20432;-84
2022/04/30 06:59:11;;;;;;;7.50;5.00;;;19.00;88.50;;;;;;5088050;28;20468;-84
2022/04/30 07:01:42;;;;;;;10.70;6.47;;;18.50;90.00;;;;;;5076810;28;20437;-79
2022/04/30 07:04:10;;;;;;;10.13;5.60;;;17.50;91.60;;;;;;5082402;28;20929;-80
2022/04/30 07:06:38;;;;;;;10.43;6.27;;;17.30;93.10;;;;;;5079722;28;20457;-81
2022/04/30 07:09:06;;;;;;;9.60;5.60;;;17.70;93.20;;;;;;5068206;28;20450;-84
2022/04/30 07:11:34;;;;;;;8.83;5.27;;;17.90;92.20;;;;;;5079555;28;20463;-84
2022/04/30 07:14:00;;;;;;;8.73;4.60;;;17.80;92.50;;;;;;5081400;28;20444;-80
2022/04/30 07:16:29;;;;;;;6.70;5.20;;;18.40;90.70;;;;;;5086850;28;20517;-84
2022/04/30 07:18:56;;;;;;;5.70;4.17;;;19.60;89.70;;;;;;5089887;28;20463;-81
2022/04/30 07:21:23;;;;;;;8.67;3.37;;;20.50;86.30;;;;;;5091931;28;20453;-82
2022/04/30 07:23:51;;;;;;;5.57;3.30;;;21.70;81.70;;;;;;5097199;28;20449;-80
2022/04/30 07:26:18;;;;;;;7.37;2.93;;;22.50;78.20;;;;;;5097099;28;20457;-84
2022/04/30 07:28:46;;;;;;;4.87;3.30;;;23.30;75.70;;;;;;5097314;28;20476;-83
2022/04/30 07:31:13;;;;;;;6.23;3.70;;;23.40;73.30;;;;;;5097392;28;20437;-83
2022/04/30 07:33:42;;;;;;;7.17;4.90;;;23.90;72.00;;;;;;5083173;28;20457;-82
2022/04/30 07:36:08;;;;;;;9.20;4.13;;;24.50;70.30;;;;;;5088746;28;20480;-83
2022/04/30 07:38:35;;;;;;;7.73;3.77;;;24.60;69.50;;;;;;5082303;28;20533;-84
2022/04/30 07:41:08;;;;;;;6.83;3.67;;;24.90;67.70;;;;;;5089173;28;20464;-83
2022/04/30 07:43:35;;;;;;;5.43;3.10;;;25.10;66.40;;;;;;5080292;28;20459;-81
2022/04/30 07:46:02;;;;;;;6.17;3.80;;;24.70;64.50;;;;;;5087661;28;20525;-82
2022/04/30 07:48:29;;;;;;;10.13;4.70;;;23.80;65.00;;;;;;5089076;28;20449;-83
2022/04/30 07:50:58;;;;;;;7.77;3.90;;;23.00;67.30;;;;;;5079117;28;21038;-83
2022/04/30 07:53:25;;;;;;;6.57;4.20;;;23.60;68.80;;;;;;5094032;28;20445;-82
2022/04/30 07:55:53;;;;;;;11.50;4.73;;;23.50;66.30;;;;;;5086206;28;20462;-84
2022/04/30 07:58:20;;;;;;;5.27;3.73;;;23.00;67.80;;;;;;5094112;28;20465;-83
2022/04/30 08:00:47;;;;;;;7.23;3.63;;;23.40;68.00;;;;;;5083957;28;20446;-80
2022/04/30 08:03:14;;;;;;;8.93;4.17;;;23.50;66.10;;;;;;5082968;28;20461;-80
2022/04/30 08:05:41;;;;;;;9.63;5.03;;;23.00;66.30;;;;;;5081239;28;20482;-81
2022/04/30 08:08:09;;;;;;;6.10;4.57;;;22.50;67.20;;;;;;5071520;28;20477;-80
2022/04/30 08:10:36;;;;;;;6.30;4.00;;;21.60;67.90;;;;;;5078234;28;20479;-79
2022/04/30 08:13:03;;;;;;;9.67;3.67;;;20.50;70.30;;;;;;5082963;28;20490;-80
2022/04/30 08:15:30;;;;;;;6.77;4.13;;;19.50;73.20;;;;;;5084462;28;20504;-81
2022/04/30 08:17:57;;;;;;;4.30;3.43;;;18.50;76.10;;;;;;5074839;28;21017;-81
2022/04/30 08:20:24;;;;;;;4.03;3.50;;;17.90;78.20;;;;;;5073086;28;20487;-81
2022/04/30 08:22:51;;;;;;;6.47;3.10;;;17.70;79.40;;;;;;5087183;28;20452;-81
2022/04/30 08:25:19;;;;;;;4.90;3.27;;;17.80;80.60;;;;;;5067167;28;20473;-80
2022/04/30 08:27:46;;;;;;;7.97;3.17;;;18.40;80.00;;;;;;5068203;28;20509;-80
2022/04/30 08:30:13;;;;;;;5.20;2.70;;;19.60;77.40;;;;;;5085540;28;20476;-80
2022/04/30 08:32:40;;;;;;;7.10;3.30;;;21.00;73.20;;;;;;5080359;28;20450;-79
2022/04/30 08:35:08;;;;;;;2.97;2.53;;;21.60;68.60;;;;;;5076069;28;20796;-79
2022/04/30 08:37:35;;;;;;;5.17;2.87;;;21.00;68.70;;;;;;5072115;28;20436;-81
2022/04/30 08:40:02;;;;;;;5.47;3.50;;;21.40;68.90;;;;;;5082835;28;20442;-77
2022/04/30 08:42:32;;;;;;;3.67;3.37;;;22.20;66.50;;;;;;5080884;28;20513;-81
2022/04/30 08:44:59;;;;;;;5.50;2.60;;;22.60;65.70;;;;;;5088628;28;20485;-79
2022/04/30 08:47:28;;;;;;;5.60;2.70;;;22.90;63.20;;;;;;5087899;28;20488;-80
2022/04/30 08:49:58;;;;;;;8.20;2.67;;;23.30;63.20;;;;;;5087135;28;20508;-78
2022/04/30 08:52:25;;;;;;;5.57;2.80;;;23.30;62.50;;;;;;5088045;28;20471;-81
2022/04/30 08:54:51;;;;;;;4.67;2.83;;;23.00;61.70;;;;;;5088432;28;20472;-81
2022/04/30 08:57:20;;;;;;;3.77;2.70;;;22.50;63.10;;;;;;5088076;28;20441;-80
2022/04/30 08:59:51;;;;;;;4.47;2.67;;;22.50;64.00;;;;;;5088827;28;20561;-80
2022/04/30 09:02:18;;;;;;;5.30;2.37;;;22.80;64.10;;;;;;5089923;28;20966;-81
2022/04/30 09:04:46;;;;;;;4.50;2.87;;;23.40;63.10;;;;;;5087829;28;20460;-80
2022/04/30 09:07:15;;;;;;;3.03;2.77;;;23.60;61.90;;;;;;5078665;28;20523;-79
2022/04/30 09:09:43;;;;;;;5.87;3.13;;;24.40;60.10;;;;;;5089485;28;20463;-80
2022/04/30 09:12:11;;;;;;;3.00;1.90;;;24.30;60.00;;;;;;5090579;28;20442;-81
2022/04/30 09:14:41;;;;;;;5.47;1.90;;;24.00;58.80;;;;;;5086703;28;20520;-80
2022/04/30 09:17:11;;;;;;;4.20;2.73;;;23.50;59.70;;;;;;5087567;28;20448;-81
2022/04/30 09:19:52;;;;;;;4.83;2.10;;;24.20;59.60;;;;;;5091151;28;20588;-83
2022/04/30 09:22:33;;;;;;;3.60;2.60;;;23.90;59.70;;;;;;5095282;28;20484;-84
2022/04/30 09:25:01;;;;;;;2.87;2.60;;;24.60;58.40;;;;;;5094033;28;20538;-83
2022/04/30 09:27:29;;;;;;;3.23;2.40;;;25.60;57.60;;;;;;5094024;28;20441;-82
2022/04/30 09:29:55;;;;;;;4.60;2.80;;;24.90;55.60;;;;;;5094497;28;20441;-82
2022/04/30 09:32:26;;;;;;;5.07;2.87;;;23.90;56.80;;;;;;5095634;28;20433;-84
2022/04/30 09:37:42;;;;;;;7.73;3.30;;;21.30;60.80;;;;;;5093791;28;20418;-85
2022/04/30 09:40:22;;;;;;;4.90;3.27;;;19.90;63.40;;;;;;5092514;28;20438;-83
2022/04/30 09:42:49;;;;;;;5.83;2.77;;;19.20;66.20;;;;;;5079556;28;20549;-83
2022/04/30 09:45:30;;;;;;;5.27;2.77;;;18.90;65.40;;;;;;5079570;28;20454;-82
2022/04/30 09:48:00;;;;;;;2.90;2.20;;;18.40;65.40;;;;;;5080723;28;20467;-85
2022/04/30 09:56:06;;;;;;;9.43;2.70;;;18.30;70.80;;;;;;5082276;28;20900;-81
2022/04/30 09:58:36;;;;;;;9.67;3.37;;;18.50;67.70;;;;;;5078557;28;20495;-82
2022/04/30 10:01:05;;;;;;;5.77;3.20;;;18.50;68.70;;;;;;5084190;28;20449;-80
2022/04/30 10:03:35;;;;;;;5.90;3.80;;;18.30;68.90;;;;;;5077417;28;20465;-81
2022/04/30 10:06:04;;;;;;;6.00;4.20;;;18.00;73.50;;;;;;5079544;28;20545;-82
2022/04/30 10:08:35;;;;;;;8.03;3.83;;;18.20;74.30;;;;;;5077238;28;20438;-82
2022/04/30 10:11:17;;;;;;;4.37;3.50;;;18.90;73.80;;;;;;5084034;28;20468;-81
2022/04/30 10:14:07;;;;;;;8.73;4.17;;;19.60;71.70;;;;;;5072831;28;20429;-82
2022/04/30 10:16:35;;;;;;;7.80;4.33;;;19.20;71.70;;;;;;5079911;28;20474;-83
2022/04/30 10:19:14;;;;;;;5.20;3.53;;;18.60;73.20;;;;;;5079678;28;20489;-81
2022/04/30 10:21:41;;;;;;;5.18;3.45;;;18.00;74.10;;;;;;5080702;28;20435;-80
2022/04/30 10:24:12;;;;;;;5.90;3.65;;;17.30;76.10;;;;;;5089173;28;20292;-82
2022/04/30 10:26:58;;;;;;;7.00;3.47;;;16.60;77.50;;;;;;5084300;28;20223;-82
2022/04/30 10:29:25;;;;;;;5.85;3.83;;;16.20;78.90;;;;;;5070000;28;20705;-82
2022/04/30 10:31:52;;;;;;;4.85;3.10;;;15.90;81.80;;;;;;5072728;28;20216;-83
2022/04/30 10:34:29;;;;;;;5.93;3.90;;;15.70;83.20;;;;;;5074132;28;20217;-83
2022/04/30 10:36:58;;;;;;;5.03;4.00;;;15.60;85.00;;;;;;5072722;28;20212;-81
2022/04/30 10:39:25;;;;;;;11.02;3.60;;;15.60;86.00;;;;;;5069718;28;20798;-83
2022/04/30 10:41:53;;;;;;;6.75;4.32;;;15.70;85.60;;;;;;5073876;28;20240;-83
2022/04/30 10:44:29;;;;;;;4.55;3.55;;;15.90;85.60;;;;;;5080576;28;20240;-82
2022/04/30 10:46:56;;;;;;;4.93;3.50;;;15.90;85.60;;;;;;5077487;28;20197;-81
2022/04/30 10:49:25;;;;;;;5.35;3.75;;;16.20;85.20;;;;;;5080164;28;20189;-80
2022/04/30 10:51:56;;;;;;;5.65;3.20;;;16.40;83.40;;;;;;5094497;28;20290;-80
2022/04/30 10:54:25;;;;;;;8.48;4.60;;;16.50;83.20;;;;;;5093572;28;20295;-80
2022/04/30 10:57:00;;;;;;;5.18;3.30;;;16.50;82.00;;;;;;5082325;28;20403;-79
2022/04/30 10:59:27;;;;;;;6.32;4.30;;;16.50;82.00;;;;;;5080366;28;20207;-80
2022/04/30 11:01:54;;;;;;;6.35;4.03;;;16.40;82.30;;;;;;5094752;28;20254;-82
2022/04/30 11:04:21;;;;;;;7.05;3.55;;;16.30;82.20;;;;;;5093773;28;20227;-79
2022/04/30 11:06:52;;;;;;;7.53;4.00;;;16.10;83.40;;;;;;5090957;28;20239;-81
2022/04/30 11:09:19;;;;;;;6.25;4.00;;;15.90;83.80;;;;;;5077940;28;20172;-83
2022/04/30 11:11:49;;;;;;;4.45;3.80;;;15.70;85.30;;;;;;5085612;28;20248;-82
2022/04/30 11:14:17;;;;;;;4.82;3.40;;;15.80;86.40;;;;;;5091440;28;20275;-80
2022/04/30 11:16:45;;;;;;;7.95;3.15;;;16.10;85.90;;;;;;5089957;28;20232;-81
2022/04/30 11:19:15;;;;;;;10.80;3.72;;;16.40;85.60;;;;;;5090542;28;20232;-80
2022/04/30 11:21:43;;;;;;;7.65;3.90;;;16.70;84.10;;;;;;5073431;28;20272;-83
2022/04/30 11:24:12;;;;;;;4.97;3.00;;;16.80;83.20;;;;;;5085903;28;20296;-79
2022/04/30 11:26:40;;;;;;;5.80;3.40;;;16.50;81.50;;;;;;5085769;28;20252;-80
2022/04/30 11:29:11;;;;;;;5.10;3.53;;;16.20;82.50;;;;;;5080901;28;20201;-83
2022/04/30 11:31:39;;;;;;;4.40;3.40;;;16.70;84.20;;;;;;5076875;28;20258;-78
2022/04/30 11:34:11;;;;;;;4.50;3.05;;;16.80;83.00;;;;;;5091476;28;20235;-82
2022/04/30 11:36:42;;;;;;;4.97;3.93;;;17.20;81.20;;;;;;5089423;28;20214;-83
2022/04/30 11:39:12;;;;;;;4.33;3.93;;;17.30;80.40;;;;;;5079779;28;20472;-82
2022/04/30 11:41:40;;;;;;;5.63;3.70;;;17.20;80.70;;;;;;5090790;28;20463;-82
2022/04/30 11:44:10;;;;;;;5.10;3.00;;;17.20;81.20;;;;;;5088893;28;20262;-85
2022/04/30 11:46:38;;;;;;;8.80;3.80;;;17.20;81.70;;;;;;5090902;28;20464;-81
2022/04/30 11:49:09;;;;;;;3.70;3.30;;;17.40;81.10;;;;;;5084653;28;20467;-79
2022/04/30 11:51:37;;;;;;;3.83;2.58;;;17.30;80.80;;;;;;5081697;28;20440;-83
2022/04/30 11:54:07;;;;;;;4.30;3.27;;;17.30;80.90;;;;;;5088117;28;20194;-82
2022/04/30 11:56:36;;;;;;;6.03;2.97;;;17.40;81.80;;;;;;5085740;28;20468;-83
2022/04/30 11:59:03;;;;;;;5.30;3.57;;;17.40;81.20;;;;;;5080558;28;20500;-83
2022/04/30 12:01:33;;;;;;;3.80;2.70;;;17.50;80.60;;;;;;5082067;28;20445;-83
2022/04/30 12:04:03;;;;;;;5.43;3.57;;;17.50;81.70;;;;;;5068663;28;20468;-86
2022/04/30 12:06:31;;;;;;;6.53;3.07;;;17.50;79.70;;;;;;5070156;28;20485;-79
2022/04/30 12:09:00;;;;;;;4.30;3.20;;;17.40;80.00;;;;;;5067440;28;20515;-78
2022/04/30 12:11:29;;;;;;;4.00;3.23;;;17.40;80.70;;;;;;5073588;28;20452;-83
2022/04/30 12:14:02;;;;;;;7.20;3.22;;;17.20;80.50;;;;;;5088257;28;20446;-83
2022/04/30 12:16:37;;;;;;;4.90;2.77;;;17.40;80.50;;;;;;5074611;28;20249;-82
2022/04/30 12:24:43;;;;;;;3.97;2.50;;;17.40;78.10;;;;;;5082856;28;20440;-81
2022/04/30 12:27:11;;;;;;;3.42;3.10;;;17.50;78.00;;;;;;5084059;28;20517;-80
2022/04/30 12:29:39;;;;;;;3.40;2.97;;;17.50;76.90;;;;;;5078094;28;20201;-81
2022/04/30 12:32:08;;;;;;;6.55;2.80;;;17.50;77.00;;;;;;5073465;28;20480;-82
2022/04/30 12:34:39;;;;;;;4.90;2.80;;;17.50;77.40;;;;;;5083566;28;20199;-80
2022/04/30 12:37:08;;;;;;;8.80;3.40;;;17.80;76.60;;;;;;5077991;28;20485;-82
2022/04/30 12:39:35;;;;;;;5.40;2.80;;;18.20;75.80;;;;;;5067101;28;20536;-81
2022/04/30 12:42:02;;;;;;;3.17;2.83;;;18.10;75.40;;;;;;5084503;28;20479;-84
2022/04/30 12:44:29;;;;;;;3.83;3.00;;;18.30;74.80;;;;;;5086365;28;20480;-81
2022/04/30 12:46:57;;;;;;;5.20;2.10;;;18.40;74.10;;;;;;5078033;28;20449;-82
2022/04/30 12:49:25;;;;;;;3.03;2.50;;;18.40;75.30;;;;;;5075413;28;20448;-83
2022/04/30 12:51:53;;;;;;;2.40;2.00;;;18.70;74.60;;;;;;5093625;28;20426;-81
2022/04/30 12:54:20;;;;;;;3.97;2.00;;;19.00;73.30;;;;;;5076430;28;20534;-80
2022/04/30 12:56:48;;;;;;;5.60;2.80;;;19.30;72.30;;;;;;5087797;28;20481;-80
2022/04/30 12:59:16;;;;;;;6.13;2.80;;;19.50;72.30;;;;;;5074463;28;20483;-82
2022/04/30 13:01:43;;;;;;;4.30;2.77;;;19.70;70.20;;;;;;5087117;28;20958;-82
2022/04/30 13:04:12;;;;;;;5.60;2.80;;;19.70;68.40;;;;;;5082298;28;20531;-80
2022/04/30 13:06:39;;;;;;;3.93;3.00;;;19.60;69.10;;;;;;5088335;28;20531;-80
2022/04/30 13:14:35;;;;;;;3.60;2.90;;;19.10;72.30;;;;;;5081201;28;20457;-82
2022/04/30 13:17:04;;;;;;;3.20;2.70;;;19.00;72.20;;;;;;5091240;28;20927;-81
2022/04/30 13:19:33;;;;;;;6.53;2.40;;;19.20;71.80;;;;;;5078594;28;20485;-84
2022/04/30 13:22:01;;;;;;;3.67;2.70;;;19.20;70.80;;;;;;5083507;28;20521;-80
2022/04/30 13:24:29;;;;;;;7.40;2.60;;;19.00;70.80;;;;;;5078979;28;20449;-80
2022/04/30 13:26:57;;;;;;;3.73;2.70;;;18.60;72.00;;;;;;5083736;28;20434;-81
2022/04/30 13:29:24;;;;;;;10.67;3.30;;;18.20;72.40;;;;;;5071016;28;20469;-80
2022/04/30 13:31:51;;;;;;;5.50;3.00;;;17.90;75.00;;;;;;5081745;28;20482;-81
2022/04/30 13:34:20;;;;;;;3.50;2.67;;;17.70;75.20;;;;;;5090045;28;20456;-79
2022/04/30 13:36:49;;;;;;;2.70;2.50;;;17.70;75.90;;;;;;5089537;28;20476;-79